Axis, AL (36505)

10:06 AM CST on December 06, 2016 (GMT -0600)
APRSWXNET | | Change Station

Elev 269 ft 30.98 °N, 88.12 °W | Updated 18 minutes ago

Overcast
Overcast
58 °F
Feels Like 58 °F
N
3
Wind Variable Wind from West
Gusts 9.0 mph

Today
High -- | Low -- °F
--% Chance of Precip.
Yesterday
High -- | Low -- °F
Precip. -- in
Pressure 29.90 in
Visibility 7.0 miles
Clouds Overcast 1500 ft
Dew Point 55 °F
Humidity 90%
Rainfall in
Snow Depth Not available.
6:36 AM 4:50 PM
Waxing Crescent, 43% visible
METAR KMOB 061556Z 26005KT 7SM OVC015 15/12 A2990 RMK AO2 SLP123 T01500117
Pressure 29.90 in
Visibility 7.0 miles
Clouds Overcast 1500 ft
Dew Point 55 °F
Humidity 90%
Rainfall in
Snow Depth Not available.
6:36 AM 4:50 PM
Waxing Crescent, 43% visible
METAR KMOB 061556Z 26005KT 7SM OVC015 15/12 A2990 RMK AO2 SLP123 T01500117

10-Day Weather Forecast

Almanac

Astronomy

Dec. 06, 2016 Rise Set
Actual Time
Civil Twilight
Nautical Twilight
Astronomical Twilight
Moon
Length of Visible Light
Length of Day
Tomorrow will be .
, % of the Moon is Illuminated

Today's Extremes

State Highs State Lows

Community

WunderPhotos

Upload Photos

1,955,965 photos uploaded!

WunderBlog® & News

Nearby

Air Quality

  Air Quality AQ Index Pollutant
Not available.

Snow Depth

Station Depth Elevation

Earthquake Activity

City Distance Mag. Time & Date
Minimum magnitude displayed is 2.5.

Coastal Water Temperatures

Place Temperature

Stations

Nearby Weather Stations

Station Location Temp. Windchill Dew Point Humidity Wind Precip. Elev Updated Type
                   

Watches & Warnings

There are currently no watches in effect.